Time;durP1;ratioP1;P1;durP2;ratioP2;P2;SDS_P1;SDS_P2;PMS_P1;PMS_P2;Temp;Humidity;BMP_temperature;BMP_pressure;BME280_temperature;BME280_humidity;BME280_pressure;Samples;Min_cycle;Max_cycle;Signal;HPM_P1;HPM_P2
2023/07/16 00:02:01;;;;;;;3.05;2.70;;;25.40;99.90;;;;;;5105740;28;20202;-79
2023/07/16 00:04:28;;;;;;;2.50;2.30;;;25.30;99.90;;;;;;5105794;28;20696;-79
2023/07/16 00:06:55;;;;;;;4.82;2.80;;;25.40;99.90;;;;;;5106174;28;20326;-79
2023/07/16 00:09:22;;;;;;;2.70;2.50;;;25.40;99.90;;;;;;5122362;27;20201;-78
2023/07/16 00:11:49;;;;;;;3.15;2.85;;;25.40;99.90;;;;;;5147013;27;20228;-79
2023/07/16 00:14:18;;;;;;;2.67;2.47;;;25.40;99.90;;;;;;5126566;27;20209;-79
2023/07/16 00:16:45;;;;;;;6.47;3.17;;;25.40;99.90;;;;;;5106347;28;20225;-79
2023/07/16 00:19:12;;;;;;;2.50;2.30;;;25.50;99.90;;;;;;5126219;27;20205;-79
2023/07/16 00:21:39;;;;;;;2.83;2.63;;;25.40;99.90;;;;;;5147369;27;20225;-79
2023/07/16 00:24:06;;;;;;;5.40;2.90;;;25.50;99.90;;;;;;5135532;27;20209;-79
2023/07/16 00:26:33;;;;;;;2.42;2.33;;;25.50;99.90;;;;;;5125809;28;20249;-79
2023/07/16 00:29:00;;;;;;;2.80;2.60;;;25.50;99.90;;;;;;5126493;28;20205;-79
2023/07/16 00:31:28;;;;;;;3.13;2.72;;;25.50;99.90;;;;;;5122359;28;20197;-79
2023/07/16 00:33:55;;;;;;;2.85;2.65;;;25.30;99.90;;;;;;5105500;28;20816;-79
2023/07/16 00:36:22;;;;;;;2.60;2.40;;;25.30;99.90;;;;;;5105210;28;20651;-79
2023/07/16 00:38:49;;;;;;;3.67;2.83;;;25.20;99.90;;;;;;5105411;28;20289;-79
2023/07/16 00:41:17;;;;;;;2.88;2.60;;;25.10;99.90;;;;;;5105871;28;20296;-79
2023/07/16 00:43:44;;;;;;;3.50;3.20;;;25.00;99.90;;;;;;5105369;28;20202;-79
2023/07/16 00:46:12;;;;;;;3.55;3.10;;;24.80;99.90;;;;;;5105719;28;20230;-79
2023/07/16 00:48:41;;;;;;;4.13;3.05;;;24.60;99.90;;;;;;5109979;27;20245;-79
2023/07/16 00:51:08;;;;;;;4.65;2.95;;;24.30;99.90;;;;;;5109327;28;20222;-79
2023/07/16 00:53:36;;;;;;;4.70;3.22;;;24.10;99.90;;;;;;5125733;28;20575;-79
2023/07/16 00:56:03;;;;;;;3.53;3.22;;;23.80;99.90;;;;;;5126239;28;20694;-79
2023/07/16 00:58:29;;;;;;;3.38;3.13;;;23.70;99.90;;;;;;5125831;28;20259;-79
2023/07/16 01:00:56;;;;;;;3.42;3.22;;;23.60;99.90;;;;;;5126106;28;20983;-79
2023/07/16 01:03:23;;;;;;;3.33;2.88;;;23.50;99.90;;;;;;5107148;28;20904;-79
2023/07/16 01:06:08;;;;;;;3.15;2.95;;;23.40;99.90;;;;;;5108568;27;21052;-79
2023/07/16 01:08:42;;;;;;;3.05;2.85;;;23.40;99.90;;;;;;5108836;28;20191;-79
2023/07/16 01:11:09;;;;;;;3.47;3.17;;;23.40;99.90;;;;;;5109193;28;20222;-79
2023/07/16 01:13:37;;;;;;;3.22;2.92;;;23.50;99.90;;;;;;5119598;27;20337;-79
2023/07/16 01:16:05;;;;;;;3.63;3.33;;;23.40;99.90;;;;;;5145958;27;20203;-79
2023/07/16 01:18:32;;;;;;;7.85;3.65;;;23.40;99.90;;;;;;5147072;27;20209;-81
2023/07/16 01:21:00;;;;;;;4.13;3.83;;;23.10;99.90;;;;;;5129367;27;20308;-79
2023/07/16 01:23:46;;;;;;;3.80;3.50;;;22.90;99.90;;;;;;5129731;27;20205;-79
2023/07/16 01:26:33;;;;;;;5.78;5.00;;;22.80;99.90;;;;;;5129774;27;20316;-79
2023/07/16 01:29:32;;;;;;;4.65;4.20;;;22.70;99.90;;;;;;5129558;27;20193;-78
2023/07/16 01:32:01;;;;;;;5.47;4.07;;;22.60;99.90;;;;;;5122913;27;20210;-78
2023/07/16 01:34:30;;;;;;;5.22;4.00;;;22.60;99.90;;;;;;5109215;28;20208;-79
2023/07/16 01:36:57;;;;;;;4.38;3.90;;;22.60;99.90;;;;;;5108940;28;20472;-79
2023/07/16 01:39:24;;;;;;;4.38;4.00;;;22.60;99.90;;;;;;5108759;28;20208;-78
2023/07/16 01:41:51;;;;;;;4.20;3.80;;;22.70;99.90;;;;;;5108520;27;20241;-78
2023/07/16 01:44:18;;;;;;;3.80;3.58;;;22.70;99.90;;;;;;5129382;27;20211;-79
2023/07/16 01:46:54;;;;;;;3.95;3.55;;;22.70;99.90;;;;;;5129446;27;20241;-79
2023/07/16 01:49:21;;;;;;;5.93;3.97;;;22.70;99.90;;;;;;5129784;27;20201;-80
2023/07/16 01:51:48;;;;;;;4.43;4.00;;;22.70;99.90;;;;;;5125208;27;20202;-78
2023/07/16 01:54:15;;;;;;;4.32;3.92;;;22.70;99.90;;;;;;5108977;28;20197;-79
2023/07/16 01:56:42;;;;;;;4.15;3.58;;;22.80;99.90;;;;;;5108944;28;20217;-78
2023/07/16 01:59:09;;;;;;;5.75;4.03;;;22.70;99.90;;;;;;5108733;28;20662;-78
2023/07/16 02:01:35;;;;;;;4.45;4.15;;;22.60;99.90;;;;;;5116987;27;20206;-79
2023/07/16 02:04:04;;;;;;;4.72;3.92;;;22.50;99.90;;;;;;5109287;28;20321;-78
2023/07/16 02:06:31;;;;;;;3.65;3.35;;;22.40;99.90;;;;;;5109103;28;20226;-81
2023/07/16 02:08:58;;;;;;;3.58;3.28;;;22.60;99.90;;;;;;5109250;28;20301;-78
2023/07/16 02:11:24;;;;;;;6.22;3.42;;;22.50;99.90;;;;;;5108998;28;20206;-78
2023/07/16 02:13:51;;;;;;;3.13;2.92;;;22.50;99.90;;;;;;5129160;27;20705;-78
2023/07/16 02:16:18;;;;;;;4.00;3.45;;;22.50;99.90;;;;;;5114975;27;20210;-78
2023/07/16 02:18:45;;;;;;;3.50;3.20;;;22.50;99.90;;;;;;5127906;27;20217;-78
2023/07/16 02:21:13;;;;;;;4.40;4.07;;;21.90;99.90;;;;;;5127436;27;20728;-78
2023/07/16 02:23:40;;;;;;;4.57;3.90;;;21.70;99.90;;;;;;5127261;27;20289;-79
2023/07/16 02:26:07;;;;;;;4.45;4.13;;;21.60;99.90;;;;;;5127006;27;20312;-79
2023/07/16 02:28:34;;;;;;;5.40;4.15;;;21.60;99.90;;;;;;5116033;27;20741;-79
2023/07/16 02:31:01;;;;;;;4.35;3.95;;;21.50;99.90;;;;;;5107357;28;20204;-79
2023/07/16 02:33:28;;;;;;;3.85;3.55;;;21.60;99.90;;;;;;5107403;28;20212;-79
2023/07/16 02:35:54;;;;;;;4.20;3.58;;;21.60;99.90;;;;;;5111051;27;20202;-79
2023/07/16 02:38:23;;;;;;;4.72;3.80;;;21.70;99.90;;;;;;5128099;27;20292;-79
2023/07/16 02:40:50;;;;;;;3.53;3.22;;;21.80;99.90;;;;;;5127684;27;20216;-79
2023/07/16 02:43:16;;;;;;;3.22;3.00;;;21.90;99.90;;;;;;5127723;27;20205;-79
2023/07/16 02:45:43;;;;;;;3.63;3.42;;;21.80;99.90;;;;;;5127173;27;20316;-79
2023/07/16 02:48:10;;;;;;;4.55;3.28;;;21.90;99.90;;;;;;5128571;27;20689;-79
2023/07/16 02:50:38;;;;;;;3.50;3.22;;;22.00;99.90;;;;;;5137499;27;20205;-79
2023/07/16 02:53:05;;;;;;;4.68;3.30;;;22.00;99.90;;;;;;5128782;27;20205;-78
2023/07/16 02:55:35;;;;;;;3.05;2.85;;;22.10;99.90;;;;;;5127958;27;20206;-78
2023/07/16 02:58:04;;;;;;;4.10;3.05;;;22.30;99.90;;;;;;5114970;27;20332;-80
2023/07/16 03:00:31;;;;;;;3.67;3.45;;;22.40;99.90;;;;;;5128578;27;20290;-79
2023/07/16 03:02:59;;;;;;;3.92;3.47;;;22.60;99.90;;;;;;5128043;27;20668;-79
2023/07/16 03:05:26;;;;;;;3.20;3.00;;;22.70;99.90;;;;;;5128208;27;20239;-78
2023/07/16 03:07:53;;;;;;;3.53;3.10;;;22.90;99.90;;;;;;5109644;27;20306;-79
2023/07/16 03:10:21;;;;;;;3.20;3.00;;;23.00;99.90;;;;;;5107596;28;20214;-79
2023/07/16 03:12:50;;;;;;;3.13;2.92;;;23.00;99.90;;;;;;5107428;28;20296;-79
2023/07/16 03:15:17;;;;;;;3.03;2.83;;;23.10;99.90;;;;;;5107162;28;20672;-79
2023/07/16 03:17:44;;;;;;;3.10;2.90;;;23.10;99.90;;;;;;5121409;27;20321;-78
2023/07/16 03:20:13;;;;;;;5.43;3.35;;;23.20;99.90;;;;;;5128545;27;20671;-79
2023/07/16 03:22:39;;;;;;;3.33;3.05;;;23.20;99.90;;;;;;5128074;27;20205;-79
2023/07/16 03:25:08;;;;;;;3.60;3.17;;;23.30;99.90;;;;;;5127748;27;20377;-79
2023/07/16 03:27:34;;;;;;;3.95;3.60;;;23.40;99.90;;;;;;5110471;27;20251;-78
2023/07/16 03:30:04;;;;;;;3.47;3.28;;;23.40;99.90;;;;;;5106466;28;20222;-79
2023/07/16 03:32:30;;;;;;;5.07;3.35;;;23.40;99.90;;;;;;5108080;28;20213;-78
2023/07/16 03:34:57;;;;;;;3.22;3.00;;;23.50;99.90;;;;;;5108317;28;20354;-79
2023/07/16 03:37:24;;;;;;;4.32;3.13;;;23.50;99.90;;;;;;5108227;28;20251;-78
2023/07/16 03:39:51;;;;;;;3.38;2.70;;;23.50;99.90;;;;;;5107394;28;21015;-79
2023/07/16 03:42:18;;;;;;;3.20;3.00;;;23.40;99.90;;;;;;5107233;28;20241;-79
2023/07/16 03:44:46;;;;;;;3.78;2.85;;;23.40;99.90;;;;;;5107682;28;20214;-79
2023/07/16 03:47:17;;;;;;;3.00;2.55;;;23.40;99.90;;;;;;5120318;27;20319;-78
2023/07/16 03:49:44;;;;;;;2.80;2.65;;;23.40;99.90;;;;;;5137969;27;20235;-79
2023/07/16 03:52:10;;;;;;;2.65;2.45;;;23.40;99.90;;;;;;5128678;27;20230;-79
2023/07/16 03:54:37;;;;;;;2.58;2.38;;;23.20;99.90;;;;;;5129040;27;20317;-79
2023/07/16 03:57:05;;;;;;;2.63;2.42;;;23.00;99.90;;;;;;5127341;28;20243;-79
2023/07/16 03:59:32;;;;;;;3.45;3.08;;;22.50;99.90;;;;;;5127398;27;20665;-79
2023/07/16 04:02:00;;;;;;;3.08;2.88;;;22.20;99.90;;;;;;5107591;28;20278;-79
2023/07/16 04:04:28;;;;;;;3.70;3.03;;;22.00;99.90;;;;;;5120431;27;20384;-80
2023/07/16 04:06:56;;;;;;;3.33;2.92;;;21.70;99.90;;;;;;5127530;28;20224;-79
2023/07/16 04:09:23;;;;;;;3.17;2.97;;;21.70;99.90;;;;;;5128266;28;20206;-79
2023/07/16 04:11:50;;;;;;;3.17;2.95;;;21.80;99.90;;;;;;5127794;28;20216;-79
2023/07/16 04:14:17;;;;;;;4.38;2.92;;;21.80;99.90;;;;;;5128131;28;20213;-79
2023/07/16 04:16:44;;;;;;;2.92;2.70;;;22.10;99.90;;;;;;5127073;28;20200;-79
2023/07/16 04:19:11;;;;;;;2.97;2.80;;;22.30;99.90;;;;;;5128094;27;20236;-79
2023/07/16 04:21:42;;;;;;;3.20;3.00;;;22.50;99.90;;;;;;5127956;28;20233;-79
2023/07/16 04:24:09;;;;;;;2.90;2.70;;;22.60;99.90;;;;;;5127021;28;20285;-79
2023/07/16 04:26:35;;;;;;;2.80;2.60;;;22.70;99.90;;;;;;5107097;28;20282;-79
2023/07/16 04:29:02;;;;;;;2.70;2.50;;;22.80;99.90;;;;;;5107117;28;20912;-78
2023/07/16 04:31:29;;;;;;;3.05;2.67;;;22.70;99.90;;;;;;5106954;28;20214;-79
2023/07/16 04:33:56;;;;;;;3.88;2.85;;;22.80;99.90;;;;;;5106893;28;20279;-79
2023/07/16 04:36:25;;;;;;;3.88;2.97;;;22.80;99.90;;;;;;5107281;28;20202;-79
2023/07/16 04:38:53;;;;;;;3.50;3.20;;;22.90;99.90;;;;;;5106813;28;20202;-79
2023/07/16 04:41:20;;;;;;;2.72;2.63;;;23.00;99.90;;;;;;5106902;28;20210;-80
2023/07/16 04:43:46;;;;;;;4.10;3.20;;;23.00;99.90;;;;;;5110136;28;20202;-80
2023/07/16 04:46:15;;;;;;;3.08;2.88;;;22.70;99.90;;;;;;5113913;27;20757;-80
2023/07/16 04:48:42;;;;;;;3.40;3.00;;;22.40;99.90;;;;;;5136284;27;20240;-79
2023/07/16 04:51:09;;;;;;;3.50;3.20;;;22.10;99.90;;;;;;5122718;27;20320;-79
2023/07/16 04:53:36;;;;;;;3.95;3.17;;;22.00;99.90;;;;;;5111737;27;20320;-79
2023/07/16 04:56:04;;;;;;;4.00;2.83;;;21.90;99.90;;;;;;5121935;27;20201;-80
2023/07/16 04:58:33;;;;;;;3.22;2.92;;;22.00;99.90;;;;;;5120289;27;20233;-79
2023/07/16 05:01:00;;;;;;;3.10;2.90;;;22.10;99.90;;;;;;5126217;27;20658;-79
2023/07/16 05:03:27;;;;;;;3.58;3.28;;;22.10;99.90;;;;;;5128487;27;20209;-79
2023/07/16 05:05:54;;;;;;;3.22;3.03;;;22.10;99.90;;;;;;5124293;27;20765;-80
2023/07/16 05:08:21;;;;;;;3.30;3.10;;;22.00;99.90;;;;;;5121573;27;20202;-79
2023/07/16 05:10:48;;;;;;;2.85;2.65;;;22.20;99.90;;;;;;5113941;27;20293;-79
2023/07/16 05:13:16;;;;;;;4.40;3.08;;;22.40;99.90;;;;;;5110884;27;20206;-79
2023/07/16 05:15:44;;;;;;;3.17;2.97;;;22.60;99.90;;;;;;5110030;28;20757;-79
2023/07/16 05:18:11;;;;;;;3.35;3.10;;;22.40;99.90;;;;;;5110925;27;20985;-79
2023/07/16 05:20:38;;;;;;;3.47;3.20;;;22.40;99.90;;;;;;5151304;27;20694;-80
2023/07/16 05:23:05;;;;;;;3.50;3.20;;;22.20;99.90;;;;;;5134746;27;20202;-79
2023/07/16 05:25:32;;;;;;;4.38;3.17;;;22.10;99.90;;;;;;5120920;27;20624;-79
2023/07/16 05:27:59;;;;;;;3.53;3.28;;;21.80;99.90;;;;;;5129642;27;20243;-79
2023/07/16 05:30:27;;;;;;;4.30;3.97;;;22.00;99.90;;;;;;5130347;27;20258;-79
2023/07/16 05:32:54;;;;;;;3.30;3.10;;;22.10;99.90;;;;;;5118662;27;20951;-80
2023/07/16 05:35:21;;;;;;;3.60;3.30;;;22.00;99.90;;;;;;5126232;27;20209;-79
2023/07/16 05:37:48;;;;;;;3.70;3.40;;;21.80;99.90;;;;;;5129803;27;20201;-79
2023/07/16 05:40:15;;;;;;;4.00;3.20;;;21.80;99.90;;;;;;5129820;27;20626;-80
2023/07/16 05:42:42;;;;;;;3.55;3.25;;;21.70;99.90;;;;;;5129514;27;20672;-80
2023/07/16 05:45:12;;;;;;;3.58;3.28;;;21.80;99.90;;;;;;5115171;27;20712;-79
2023/07/16 05:47:40;;;;;;;3.30;3.10;;;21.60;99.90;;;;;;5137957;27;20733;-80
2023/07/16 05:50:08;;;;;;;3.38;3.08;;;21.60;99.90;;;;;;5132882;27;20304;-82
2023/07/16 05:52:35;;;;;;;3.97;3.63;;;21.60;99.90;;;;;;5128751;27;20210;-80
2023/07/16 05:55:02;;;;;;;3.57;3.07;;;21.50;99.90;;;;;;5127442;27;20209;-79
2023/07/16 05:57:29;;;;;;;3.90;3.40;;;21.60;99.90;;;;;;5128789;27;20297;-79
2023/07/16 05:59:56;;;;;;;3.88;3.58;;;21.80;99.90;;;;;;5129099;27;20221;-81
2023/07/16 06:02:23;;;;;;;6.17;3.70;;;21.90;99.90;;;;;;5129276;27;20254;-79
2023/07/16 06:04:51;;;;;;;3.70;3.40;;;21.90;99.90;;;;;;5117891;27;20210;-79
2023/07/16 06:07:18;;;;;;;3.60;3.30;;;21.90;99.90;;;;;;5108145;28;20709;-80
2023/07/16 06:09:45;;;;;;;3.92;3.42;;;21.90;99.90;;;;;;5108182;28;20241;-81
2023/07/16 06:12:11;;;;;;;4.47;3.35;;;21.90;99.90;;;;;;5108613;28;20943;-80
2023/07/16 06:14:38;;;;;;;3.13;2.97;;;22.00;99.90;;;;;;5128372;27;20206;-79
2023/07/16 06:17:06;;;;;;;3.63;3.33;;;22.10;99.90;;;;;;5128846;27;20197;-79
2023/07/16 06:19:32;;;;;;;3.45;3.15;;;22.10;99.90;;;;;;5129029;27;20891;-79
2023/07/16 06:22:01;;;;;;;3.83;2.85;;;22.20;99.90;;;;;;5128474;27;20308;-80
2023/07/16 06:24:28;;;;;;;3.42;3.22;;;22.20;99.90;;;;;;5120700;27;20263;-80
2023/07/16 06:26:54;;;;;;;3.15;2.95;;;22.40;99.90;;;;;;5107813;28;20691;-79
2023/07/16 06:29:21;;;;;;;3.17;2.95;;;22.50;99.90;;;;;;5107993;28;20214;-80
2023/07/16 06:31:56;;;;;;;2.90;2.75;;;22.50;99.90;;;;;;5107953;28;20289;-79
2023/07/16 06:34:23;;;;;;;3.33;3.07;;;22.50;99.90;;;;;;5107481;27;20658;-80
2023/07/16 06:36:50;;;;;;;3.50;3.30;;;22.50;99.90;;;;;;5107808;28;20247;-79
2023/07/16 06:39:18;;;;;;;3.55;3.25;;;22.60;99.90;;;;;;5107951;28;20921;-80
2023/07/16 06:41:45;;;;;;;3.75;2.88;;;22.60;99.90;;;;;;5107278;28;20304;-80
2023/07/16 06:44:12;;;;;;;3.17;2.95;;;22.70;99.90;;;;;;5117757;27;20296;-79
2023/07/16 06:46:39;;;;;;;4.53;2.90;;;22.70;99.90;;;;;;5127693;27;20235;-80
2023/07/16 06:49:06;;;;;;;3.05;2.75;;;22.80;99.90;;;;;;5128015;27;20205;-80
2023/07/16 06:51:33;;;;;;;3.10;2.88;;;22.70;99.90;;;;;;5122064;27;20206;-79
2023/07/16 06:54:00;;;;;;;3.03;2.80;;;22.80;99.90;;;;;;5116844;27;20284;-79
2023/07/16 06:56:28;;;;;;;3.17;2.90;;;22.80;99.90;;;;;;5128276;27;20241;-80
2023/07/16 06:58:55;;;;;;;3.35;3.03;;;22.90;99.90;;;;;;5110769;27;20257;-79
2023/07/16 07:01:22;;;;;;;3.47;2.72;;;23.00;99.90;;;;;;5107241;28;20214;-79
2023/07/16 07:03:49;;;;;;;3.40;2.95;;;22.90;99.90;;;;;;5113628;27;20208;-80
2023/07/16 07:06:16;;;;;;;3.13;2.92;;;23.10;99.90;;;;;;5127293;27;20211;-80
2023/07/16 07:08:43;;;;;;;3.03;2.83;;;23.10;99.90;;;;;;5126062;27;20258;-79
2023/07/16 07:11:09;;;;;;;3.90;2.85;;;23.20;99.90;;;;;;5108106;28;20213;-80
2023/07/16 07:13:38;;;;;;;3.65;3.28;;;23.30;99.90;;;;;;5111382;27;20198;-79
2023/07/16 07:16:05;;;;;;;3.20;3.00;;;23.30;99.90;;;;;;5118392;27;20204;-80
2023/07/16 07:18:32;;;;;;;2.83;2.65;;;23.20;99.90;;;;;;5110659;27;20303;-79
2023/07/16 07:20:59;;;;;;;3.72;3.00;;;23.20;99.90;;;;;;5127954;27;20300;-79
2023/07/16 07:23:25;;;;;;;2.88;2.67;;;23.20;99.90;;;;;;5127408;27;20230;-80
2023/07/16 07:25:53;;;;;;;2.90;2.70;;;23.20;99.90;;;;;;5127540;27;20298;-79
2023/07/16 07:28:21;;;;;;;3.00;2.80;;;23.20;99.90;;;;;;5127714;27;20323;-79
2023/07/16 07:30:49;;;;;;;2.95;2.72;;;23.20;99.90;;;;;;5127666;27;20889;-80
2023/07/16 07:33:16;;;;;;;2.92;2.50;;;23.30;99.90;;;;;;5112557;27;20198;-80
2023/07/16 07:35:43;;;;;;;2.95;2.75;;;23.30;99.90;;;;;;5127419;27;20233;-79
2023/07/16 07:38:09;;;;;;;2.70;2.45;;;23.40;99.90;;;;;;5127571;27;20245;-79
2023/07/16 07:40:36;;;;;;;3.03;2.47;;;23.50;99.90;;;;;;5148328;27;20283;-79
2023/07/16 07:43:03;;;;;;;4.30;2.47;;;23.60;99.90;;;;;;5148760;27;20208;-79
2023/07/16 07:45:30;;;;;;;2.55;2.33;;;23.60;99.90;;;;;;5128211;27;20201;-80
2023/07/16 07:47:58;;;;;;;2.03;1.92;;;23.60;99.90;;;;;;5110383;28;20329;-79
2023/07/16 07:50:25;;;;;;;2.47;1.80;;;23.50;99.90;;;;;;5136295;27;20204;-80
2023/07/16 07:52:52;;;;;;;1.95;1.85;;;23.50;99.90;;;;;;5114256;27;20281;-80
2023/07/16 07:55:19;;;;;;;2.20;2.00;;;23.40;99.90;;;;;;5122597;27;20229;-80
2023/07/16 07:57:46;;;;;;;1.90;1.80;;;23.30;99.90;;;;;;5110215;27;20226;-79
2023/07/16 08:00:14;;;;;;;2.08;1.92;;;23.30;99.90;;;;;;5122833;27;20190;-80
2023/07/16 08:02:41;;;;;;;2.40;2.20;;;23.30;99.90;;;;;;5118255;27;20233;-79
2023/07/16 08:05:10;;;;;;;2.42;1.90;;;23.40;99.90;;;;;;5110825;28;20284;-79
2023/07/16 08:07:37;;;;;;;1.90;1.80;;;23.40;99.90;;;;;;5128298;28;20233;-79
2023/07/16 08:10:05;;;;;;;2.40;2.20;;;23.40;99.90;;;;;;5127912;28;20212;-79
2023/07/16 08:12:32;;;;;;;4.55;3.05;;;23.50;99.90;;;;;;5127253;28;20281;-79
2023/07/16 08:14:59;;;;;;;2.03;1.92;;;23.50;99.90;;;;;;5114793;28;20238;-79
2023/07/16 08:17:26;;;;;;;2.45;2.28;;;23.60;99.90;;;;;;5111409;28;21063;-79
2023/07/16 08:19:52;;;;;;;2.25;2.00;;;23.80;99.90;;;;;;5126451;27;20235;-79
2023/07/16 08:22:21;;;;;;;3.03;2.17;;;24.00;99.90;;;;;;5125731;27;20733;-79
2023/07/16 08:24:48;;;;;;;2.22;1.85;;;24.00;99.90;;;;;;5112226;28;20572;-80
2023/07/16 08:27:14;;;;;;;2.38;2.17;;;24.00;99.90;;;;;;5112392;28;20325;-79
2023/07/16 08:29:41;;;;;;;2.08;1.98;;;24.00;99.90;;;;;;5112617;28;20198;-80
2023/07/16 08:32:09;;;;;;;2.20;2.10;;;24.00;99.90;;;;;;5120406;27;20302;-79
2023/07/16 08:34:35;;;;;;;2.40;2.20;;;24.00;99.90;;;;;;5132731;27;20689;-79
2023/07/16 08:37:02;;;;;;;2.33;2.15;;;24.00;99.90;;;;;;5150310;27;20207;-80
2023/07/16 08:39:31;;;;;;;2.58;2.38;;;24.10;99.90;;;;;;5152804;27;20817;-79
2023/07/16 08:41:59;;;;;;;2.20;2.00;;;24.30;99.90;;;;;;5140059;27;20393;-80
2023/07/16 08:44:26;;;;;;;2.63;2.42;;;24.20;99.90;;;;;;5114676;27;20210;-79
2023/07/16 08:46:53;;;;;;;3.00;2.28;;;24.20;99.90;;;;;;5131668;27;20207;-79
2023/07/16 08:49:22;;;;;;;2.55;2.30;;;24.20;99.90;;;;;;5120966;27;20256;-79
2023/07/16 08:51:50;;;;;;;2.33;2.13;;;24.20;99.90;;;;;;5111002;27;20198;-79
2023/07/16 08:54:18;;;;;;;3.30;2.20;;;24.30;99.90;;;;;;5111226;28;20206;-79
2023/07/16 08:56:49;;;;;;;3.63;2.20;;;24.40;99.90;;;;;;5110836;28;20210;-79
2023/07/16 08:59:16;;;;;;;4.47;2.10;;;24.50;99.90;;;;;;5110208;28;20325;-79
2023/07/16 09:01:43;;;;;;;4.65;2.30;;;24.60;99.90;;;;;;5110186;28;20680;-79
2023/07/16 09:04:10;;;;;;;2.30;2.10;;;24.60;99.90;;;;;;5111249;27;20224;-79
2023/07/16 09:06:37;;;;;;;2.58;1.90;;;24.50;99.90;;;;;;5110395;28;20202;-79
2023/07/16 09:09:04;;;;;;;3.88;2.10;;;24.40;99.90;;;;;;5110627;28;20320;-81
2023/07/16 09:11:31;;;;;;;2.30;2.15;;;24.40;99.90;;;;;;5110433;28;20210;-80
2023/07/16 09:14:02;;;;;;;4.43;1.95;;;24.50;99.90;;;;;;5115071;27;20234;-80
2023/07/16 09:16:33;;;;;;;1.85;1.70;;;24.70;99.90;;;;;;5131298;27;20266;-80
2023/07/16 09:19:07;;;;;;;3.53;2.10;;;24.60;99.90;;;;;;5138161;27;20714;-79
2023/07/16 09:21:35;;;;;;;2.05;1.75;;;24.50;99.90;;;;;;5151920;27;20189;-80
2023/07/16 09:24:08;;;;;;;3.28;1.90;;;24.50;99.90;;;;;;5151984;27;20223;-80
2023/07/16 09:26:37;;;;;;;1.70;1.60;;;24.50;99.90;;;;;;5132656;27;20197;-80
2023/07/16 09:29:08;;;;;;;2.97;2.00;;;24.60;99.90;;;;;;5109201;28;20237;-79
2023/07/16 09:31:35;;;;;;;3.13;2.13;;;24.60;99.90;;;;;;5117202;27;20194;-80
2023/07/16 09:34:02;;;;;;;4.22;1.85;;;24.80;99.90;;;;;;5129959;27;20750;-79
2023/07/16 09:36:29;;;;;;;4.45;1.80;;;24.70;99.90;;;;;;5129667;27;20217;-79
2023/07/16 09:38:56;;;;;;;1.52;1.50;;;24.80;99.90;;;;;;5119259;27;20237;-79
2023/07/16 09:41:24;;;;;;;2.72;2.00;;;24.90;99.90;;;;;;5116894;27;20560;-79
2023/07/16 09:43:51;;;;;;;2.50;1.75;;;25.00;99.90;;;;;;5128994;27;20211;-79
2023/07/16 09:46:19;;;;;;;3.25;1.90;;;25.00;99.90;;;;;;5125678;27;20570;-79
2023/07/16 09:48:46;;;;;;;3.15;2.10;;;25.00;99.90;;;;;;5109355;28;20324;-80
2023/07/16 09:51:14;;;;;;;2.00;1.90;;;25.20;99.90;;;;;;5108651;28;20205;-80
2023/07/16 09:53:45;;;;;;;2.00;1.90;;;25.20;99.90;;;;;;5109306;28;20206;-79
2023/07/16 09:56:14;;;;;;;2.88;2.05;;;25.40;99.90;;;;;;5109250;28;20289;-79
2023/07/16 09:58:42;;;;;;;2.10;1.90;;;25.50;99.90;;;;;;5108620;28;20246;-79
2023/07/16 10:01:10;;;;;;;2.35;2.08;;;25.60;99.90;;;;;;5110024;28;20330;-80
2023/07/16 10:03:48;;;;;;;3.85;2.10;;;25.70;99.90;;;;;;5109757;28;20628;-79
2023/07/16 10:06:15;;;;;;;3.25;2.05;;;25.60;99.90;;;;;;5109743;28;20190;-79
2023/07/16 10:08:50;;;;;;;2.08;1.85;;;25.60;99.90;;;;;;5109185;28;20301;-79
2023/07/16 10:11:18;;;;;;;2.20;2.00;;;25.60;99.90;;;;;;5109046;28;20190;-79
2023/07/16 10:13:50;;;;;;;2.20;1.83;;;25.70;99.90;;;;;;5109155;28;20216;-80
2023/07/16 10:16:22;;;;;;;2.30;2.10;;;25.80;99.90;;;;;;5109267;28;20190;-79
2023/07/16 10:18:54;;;;;;;2.25;2.08;;;25.70;99.90;;;;;;5114958;27;20330;-79
2023/07/16 10:21:24;;;;;;;2.58;1.90;;;25.80;99.90;;;;;;5130349;27;20382;-79
2023/07/16 10:23:58;;;;;;;5.47;2.45;;;25.90;99.90;;;;;;5129299;27;20197;-79
2023/07/16 10:26:29;;;;;;;3.20;2.10;;;25.80;99.90;;;;;;5130074;27;20193;-79
2023/07/16 10:28:56;;;;;;;2.58;2.10;;;25.80;99.90;;;;;;5113207;27;20705;-83
2023/07/16 10:31:25;;;;;;;2.75;2.22;;;25.70;99.90;;;;;;5109167;28;20301;-80
2023/07/16 10:34:04;;;;;;;2.88;2.20;;;25.60;99.90;;;;;;5109788;28;20858;-79
2023/07/16 10:36:31;;;;;;;4.32;2.20;;;25.80;99.90;;;;;;5124529;27;20209;-80
2023/07/16 10:39:04;;;;;;;4.03;2.42;;;25.80;99.90;;;;;;5129470;27;20324;-79
2023/07/16 10:41:32;;;;;;;3.90;2.15;;;25.90;99.90;;;;;;5130039;27;20197;-82
2023/07/16 10:43:59;;;;;;;1.90;1.80;;;26.10;99.90;;;;;;5129799;27;20215;-79
2023/07/16 10:46:27;;;;;;;4.32;2.42;;;26.30;99.90;;;;;;5129664;27;20288;-79
2023/07/16 10:48:54;;;;;;;3.47;1.92;;;26.10;99.90;;;;;;5129736;27;20239;-79
2023/07/16 10:51:27;;;;;;;3.50;2.08;;;26.30;99.90;;;;;;5112514;27;20202;-79
2023/07/16 10:53:56;;;;;;;2.25;2.05;;;26.40;99.90;;;;;;5109554;28;20206;-79
2023/07/16 10:56:23;;;;;;;2.05;1.95;;;26.40;99.90;;;;;;5109130;28;20301;-80
2023/07/16 10:58:50;;;;;;;4.43;2.20;;;26.50;99.90;;;;;;5124655;27;20264;-79
2023/07/16 11:01:17;;;;;;;4.70;2.15;;;26.40;99.90;;;;;;5130392;27;20296;-79
2023/07/16 11:03:44;;;;;;;2.47;1.85;;;26.40;99.90;;;;;;5130216;27;20215;-80
2023/07/16 11:06:12;;;;;;;2.50;2.00;;;26.70;99.90;;;;;;5130082;27;20857;-79
2023/07/16 11:08:40;;;;;;;1.83;1.73;;;27.00;99.90;;;;;;5129690;27;20258;-79
2023/07/16 11:11:07;;;;;;;2.70;2.22;;;27.40;99.90;;;;;;5128864;27;21008;-79
2023/07/16 11:13:34;;;;;;;2.15;1.83;;;27.80;99.90;;;;;;5129453;27;20755;-79
2023/07/16 11:16:08;;;;;;;3.58;1.92;;;28.00;99.90;;;;;;5129593;27;20860;-79
2023/07/16 11:18:35;;;;;;;2.40;2.20;;;27.70;99.90;;;;;;5132965;27;20294;-79
2023/07/16 11:21:02;;;;;;;2.65;2.22;;;27.60;99.90;;;;;;5150109;27;20208;-79
2023/07/16 11:23:29;;;;;;;2.35;2.10;;;27.40;99.90;;;;;;5111349;27;20926;-79
2023/07/16 11:25:57;;;;;;;3.00;2.10;;;27.00;99.60;;;;;;5129129;27;20202;-79
2023/07/16 11:28:24;;;;;;;2.55;2.03;;;26.70;99.70;;;;;;5129392;27;20229;-79
2023/07/16 11:30:51;;;;;;;2.00;1.90;;;26.50;99.90;;;;;;5129412;27;20286;-79
2023/07/16 11:33:17;;;;;;;2.08;1.80;;;26.40;99.90;;;;;;5130588;27;20289;-83
2023/07/16 11:35:44;;;;;;;3.20;1.98;;;26.30;99.90;;;;;;5139682;27;20204;-79
2023/07/16 11:38:11;;;;;;;4.53;2.17;;;26.30;99.90;;;;;;5128550;27;20213;-80
2023/07/16 11:40:39;;;;;;;2.00;1.80;;;26.50;99.90;;;;;;5129504;27;20309;-79
2023/07/16 11:43:11;;;;;;;1.70;1.60;;;26.80;99.90;;;;;;5128607;27;20970;-79
2023/07/16 11:45:39;;;;;;;2.67;1.70;;;27.20;99.80;;;;;;5129248;27;20642;-80
2023/07/16 11:48:06;;;;;;;2.50;1.98;;;27.60;99.10;;;;;;5128414;27;20225;-80
2023/07/16 11:50:33;;;;;;;3.05;1.98;;;27.80;97.90;;;;;;5113862;27;20301;-79
2023/07/16 11:53:02;;;;;;;4.43;1.85;;;28.00;96.70;;;;;;5127828;27;20243;-79
2023/07/16 11:55:29;;;;;;;2.28;2.08;;;28.00;95.30;;;;;;5121080;27;20240;-78
2023/07/16 11:57:56;;;;;;;1.90;1.80;;;27.60;94.30;;;;;;5106922;28;20241;-80
2023/07/16 12:00:25;;;;;;;3.40;1.60;;;27.70;95.50;;;;;;5107688;28;20226;-80
2023/07/16 12:02:52;;;;;;;2.17;1.90;;;27.60;95.10;;;;;;5118107;27;20727;-79
2023/07/16 12:05:19;;;;;;;2.05;1.83;;;27.70;95.60;;;;;;5117917;27;20270;-79
2023/07/16 12:07:46;;;;;;;2.80;1.73;;;27.80;94.10;;;;;;5126863;28;20596;-81
2023/07/16 12:10:12;;;;;;;2.97;2.20;;;28.10;93.30;;;;;;5127044;28;20205;-78
2023/07/16 12:12:39;;;;;;;5.28;2.05;;;28.40;93.30;;;;;;5126831;28;20254;-79
2023/07/16 12:15:08;;;;;;;2.13;1.92;;;28.70;92.10;;;;;;5126450;28;20245;-79
2023/07/16 12:17:36;;;;;;;2.13;2.03;;;28.90;91.80;;;;;;5126247;28;20292;-79
2023/07/16 12:20:04;;;;;;;1.90;1.80;;;29.00;91.20;;;;;;5120178;27;20586;-78
2023/07/16 12:22:31;;;;;;;5.40;2.10;;;28.70;90.90;;;;;;5105234;28;20992;-78
2023/07/16 12:24:58;;;;;;;2.17;1.67;;;28.90;89.80;;;;;;5105165;28;20217;-78
2023/07/16 12:27:25;;;;;;;3.17;2.00;;;28.80;90.40;;;;;;5110844;28;20194;-78
2023/07/16 12:29:52;;;;;;;2.05;1.95;;;28.90;89.30;;;;;;5104624;28;20290;-79
2023/07/16 12:32:20;;;;;;;2.97;2.08;;;29.00;85.50;;;;;;5104677;28;20581;-79
2023/07/16 12:34:48;;;;;;;5.43;2.30;;;29.00;86.30;;;;;;5105501;28;20267;-78
2023/07/16 12:37:16;;;;;;;3.20;2.30;;;29.20;88.00;;;;;;5105209;28;20316;-79
2023/07/16 12:39:43;;;;;;;2.58;2.00;;;29.00;86.00;;;;;;5105208;28;20206;-78
2023/07/16 12:42:10;;;;;;;2.22;2.13;;;28.80;88.00;;;;;;5105125;28;20228;-79
2023/07/16 12:44:37;;;;;;;2.83;2.00;;;28.90;87.90;;;;;;5105077;28;20202;-79
2023/07/16 12:47:05;;;;;;;1.88;1.77;;;28.30;87.70;;;;;;5113690;28;20211;-79
2023/07/16 12:49:31;;;;;;;3.90;2.00;;;28.00;88.00;;;;;;5126265;27;20237;-78
2023/07/16 12:52:00;;;;;;;2.17;1.88;;;27.80;89.00;;;;;;5125431;28;20731;-78